sensor_id;sensor_type;location;lat;lon;timestamp;P1;durP1;ratioP1;P2;durP2;ratioP2
67352;SDS011;54238;52.278;21.056;2022-12-29T00:00:42;12.60;;;6.40;;
67352;SDS011;54238;52.278;21.056;2022-12-29T00:03:20;9.60;;;5.80;;
67352;SDS011;54238;52.278;21.056;2022-12-29T00:05:56;12.00;;;6.00;;
67352;SDS011;54238;52.278;21.056;2022-12-29T00:08:29;12.20;;;5.90;;
67352;SDS011;54238;52.278;21.056;2022-12-29T00:11:15;16.80;;;6.50;;
67352;SDS011;54238;52.278;21.056;2022-12-29T00:13:48;12.00;;;7.00;;
67352;SDS011;54238;52.278;21.056;2022-12-29T00:16:38;12.30;;;6.30;;
67352;SDS011;54238;52.278;21.056;2022-12-29T00:19:13;15.80;;;6.40;;
67352;SDS011;54238;52.278;21.056;2022-12-29T00:21:59;13.70;;;6.20;;
67352;SDS011;54238;52.278;21.056;2022-12-29T00:24:47;16.90;;;6.70;;
67352;SDS011;54238;52.278;21.056;2022-12-29T00:27:33;13.50;;;6.30;;
67352;SDS011;54238;52.278;21.056;2022-12-29T00:30:22;10.70;;;5.70;;
67352;SDS011;54238;52.278;21.056;2022-12-29T00:36:00;10.20;;;6.00;;
67352;SDS011;54238;52.278;21.056;2022-12-29T00:41:22;13.20;;;6.60;;
67352;SDS011;54238;52.278;21.056;2022-12-29T00:44:09;15.20;;;6.60;;
67352;SDS011;54238;52.278;21.056;2022-12-29T00:46:41;10.30;;;4.90;;
67352;SDS011;54238;52.278;21.056;2022-12-29T00:49:13;13.80;;;6.00;;
67352;SDS011;54238;52.278;21.056;2022-12-29T00:52:02;12.70;;;6.40;;
67352;SDS011;54238;52.278;21.056;2022-12-29T00:54:36;10.70;;;5.60;;
67352;SDS011;54238;52.278;21.056;2022-12-29T00:57:08;11.50;;;6.10;;
67352;SDS011;54238;52.278;21.056;2022-12-29T00:59:41;14.40;;;5.90;;
67352;SDS011;54238;52.278;21.056;2022-12-29T01:02:16;12.00;;;6.20;;
67352;SDS011;54238;52.278;21.056;2022-12-29T01:04:46;11.20;;;6.00;;
67352;SDS011;54238;52.278;21.056;2022-12-29T01:07:18;12.90;;;5.50;;
67352;SDS011;54238;52.278;21.056;2022-12-29T01:09:51;12.50;;;5.40;;
67352;SDS011;54238;52.278;21.056;2022-12-29T01:12:39;13.40;;;5.80;;
67352;SDS011;54238;52.278;21.056;2022-12-29T01:15:16;11.50;;;5.60;;
67352;SDS011;54238;52.278;21.056;2022-12-29T01:17:46;10.10;;;5.30;;
67352;SDS011;54238;52.278;21.056;2022-12-29T01:20:15;11.80;;;6.40;;
67352;SDS011;54238;52.278;21.056;2022-12-29T01:22:47;11.80;;;5.20;;
67352;SDS011;54238;52.278;21.056;2022-12-29T01:25:17;14.70;;;6.00;;
67352;SDS011;54238;52.278;21.056;2022-12-29T01:27:44;10.70;;;4.80;;
67352;SDS011;54238;52.278;21.056;2022-12-29T01:30:13;13.30;;;6.40;;
67352;SDS011;54238;52.278;21.056;2022-12-29T01:32:41;11.60;;;5.80;;
67352;SDS011;54238;52.278;21.056;2022-12-29T01:35:20;10.30;;;4.80;;
67352;SDS011;54238;52.278;21.056;2022-12-29T01:37:50;11.40;;;5.50;;
67352;SDS011;54238;52.278;21.056;2022-12-29T01:40:27;10.80;;;4.70;;
67352;SDS011;54238;52.278;21.056;2022-12-29T01:42:55;11.00;;;5.70;;
67352;SDS011;54238;52.278;21.056;2022-12-29T01:45:24;11.40;;;5.60;;
67352;SDS011;54238;52.278;21.056;2022-12-29T01:48:08;12.30;;;6.00;;
67352;SDS011;54238;52.278;21.056;2022-12-29T01:51:04;8.70;;;4.70;;
67352;SDS011;54238;52.278;21.056;2022-12-29T01:53:36;12.30;;;5.40;;
67352;SDS011;54238;52.278;21.056;2022-12-29T01:56:11;7.80;;;4.30;;
67352;SDS011;54238;52.278;21.056;2022-12-29T01:58:49;11.80;;;6.00;;
67352;SDS011;54238;52.278;21.056;2022-12-29T02:01:23;11.10;;;5.60;;
67352;SDS011;54238;52.278;21.056;2022-12-29T02:03:51;10.10;;;4.70;;
67352;SDS011;54238;52.278;21.056;2022-12-29T02:06:33;7.30;;;4.80;;
67352;SDS011;54238;52.278;21.056;2022-12-29T02:09:09;10.00;;;5.50;;
67352;SDS011;54238;52.278;21.056;2022-12-29T02:11:46;8.30;;;4.50;;
67352;SDS011;54238;52.278;21.056;2022-12-29T02:14:15;9.00;;;4.90;;
67352;SDS011;54238;52.278;21.056;2022-12-29T02:32:13;7.90;;;4.40;;
67352;SDS011;54238;52.278;21.056;2022-12-29T02:38:31;9.70;;;5.20;;
67352;SDS011;54238;52.278;21.056;2022-12-29T02:44:07;10.60;;;4.40;;
67352;SDS011;54238;52.278;21.056;2022-12-29T02:47:00;11.30;;;5.10;;
67352;SDS011;54238;52.278;21.056;2022-12-29T02:52:54;7.20;;;4.70;;
67352;SDS011;54238;52.278;21.056;2022-12-29T02:55:30;9.20;;;4.90;;
67352;SDS011;54238;52.278;21.056;2022-12-29T02:58:26;8.90;;;4.60;;
67352;SDS011;54238;52.278;21.056;2022-12-29T03:16:07;9.10;;;4.90;;
67352;SDS011;54238;52.278;21.056;2022-12-29T03:19:06;9.30;;;3.70;;
67352;SDS011;54238;52.278;21.056;2022-12-29T03:22:08;9.80;;;4.70;;
67352;SDS011;54238;52.278;21.056;2022-12-29T03:25:05;7.20;;;4.20;;
67352;SDS011;54238;52.278;21.056;2022-12-29T03:28:03;9.70;;;4.80;;
67352;SDS011;54238;52.278;21.056;2022-12-29T03:30:38;13.10;;;4.80;;
67352;SDS011;54238;52.278;21.056;2022-12-29T03:33:10;8.60;;;4.40;;
67352;SDS011;54238;52.278;21.056;2022-12-29T03:35:42;10.10;;;5.30;;
67352;SDS011;54238;52.278;21.056;2022-12-29T03:40:46;7.50;;;4.50;;
67352;SDS011;54238;52.278;21.056;2022-12-29T03:43:18;7.10;;;4.10;;
67352;SDS011;54238;52.278;21.056;2022-12-29T03:45:48;7.10;;;3.70;;
67352;SDS011;54238;52.278;21.056;2022-12-29T03:48:20;8.10;;;4.20;;
67352;SDS011;54238;52.278;21.056;2022-12-29T03:50:47;9.60;;;4.50;;
67352;SDS011;54238;52.278;21.056;2022-12-29T03:53:21;9.00;;;4.70;;
67352;SDS011;54238;52.278;21.056;2022-12-29T03:55:56;9.30;;;4.10;;
67352;SDS011;54238;52.278;21.056;2022-12-29T03:58:23;9.00;;;3.90;;
67352;SDS011;54238;52.278;21.056;2022-12-29T04:00:56;8.70;;;4.30;;
67352;SDS011;54238;52.278;21.056;2022-12-29T04:03:24;10.70;;;4.30;;
67352;SDS011;54238;52.278;21.056;2022-12-29T04:05:53;5.90;;;3.90;;
67352;SDS011;54238;52.278;21.056;2022-12-29T04:08:23;5.70;;;3.80;;
67352;SDS011;54238;52.278;21.056;2022-12-29T04:10:52;11.10;;;5.00;;
67352;SDS011;54238;52.278;21.056;2022-12-29T04:13:19;9.10;;;4.40;;
67352;SDS011;54238;52.278;21.056;2022-12-29T04:15:46;9.30;;;4.40;;
67352;SDS011;54238;52.278;21.056;2022-12-29T04:18:13;10.50;;;4.10;;
67352;SDS011;54238;52.278;21.056;2022-12-29T04:20:45;10.30;;;3.90;;
67352;SDS011;54238;52.278;21.056;2022-12-29T04:23:34;9.10;;;5.00;;
67352;SDS011;54238;52.278;21.056;2022-12-29T04:26:06;7.70;;;3.80;;
67352;SDS011;54238;52.278;21.056;2022-12-29T04:28:38;5.20;;;3.30;;
67352;SDS011;54238;52.278;21.056;2022-12-29T04:31:10;10.30;;;3.80;;
67352;SDS011;54238;52.278;21.056;2022-12-29T04:33:42;9.30;;;4.30;;
67352;SDS011;54238;52.278;21.056;2022-12-29T04:36:12;8.20;;;5.00;;
67352;SDS011;54238;52.278;21.056;2022-12-29T04:38:42;10.20;;;4.40;;
67352;SDS011;54238;52.278;21.056;2022-12-29T04:41:12;8.90;;;4.70;;
67352;SDS011;54238;52.278;21.056;2022-12-29T04:43:41;11.60;;;5.70;;
67352;SDS011;54238;52.278;21.056;2022-12-29T04:46:13;9.70;;;4.40;;
67352;SDS011;54238;52.278;21.056;2022-12-29T04:48:41;9.00;;;4.00;;
67352;SDS011;54238;52.278;21.056;2022-12-29T04:51:15;9.20;;;4.30;;
67352;SDS011;54238;52.278;21.056;2022-12-29T04:53:42;11.40;;;5.40;;
67352;SDS011;54238;52.278;21.056;2022-12-29T04:56:17;11.30;;;6.10;;
67352;SDS011;54238;52.278;21.056;2022-12-29T04:58:51;12.80;;;5.20;;
67352;SDS011;54238;52.278;21.056;2022-12-29T05:01:26;12.70;;;6.10;;
67352;SDS011;54238;52.278;21.056;2022-12-29T05:03:55;15.30;;;5.80;;
67352;SDS011;54238;52.278;21.056;2022-12-29T05:06:25;12.80;;;6.20;;
67352;SDS011;54238;52.278;21.056;2022-12-29T05:08:55;14.20;;;6.10;;
67352;SDS011;54238;52.278;21.056;2022-12-29T05:11:52;15.20;;;6.40;;
67352;SDS011;54238;52.278;21.056;2022-12-29T05:14:23;11.40;;;5.50;;
67352;SDS011;54238;52.278;21.056;2022-12-29T05:16:53;15.50;;;6.10;;
67352;SDS011;54238;52.278;21.056;2022-12-29T05:19:27;14.50;;;5.90;;
67352;SDS011;54238;52.278;21.056;2022-12-29T05:21:59;10.10;;;5.20;;
67352;SDS011;54238;52.278;21.056;2022-12-29T05:24:31;11.50;;;5.60;;
67352;SDS011;54238;52.278;21.056;2022-12-29T05:27:01;14.10;;;6.30;;
67352;SDS011;54238;52.278;21.056;2022-12-29T05:29:31;11.20;;;5.60;;
67352;SDS011;54238;52.278;21.056;2022-12-29T05:32:09;15.70;;;7.00;;
67352;SDS011;54238;52.278;21.056;2022-12-29T05:34:36;16.20;;;5.80;;
67352;SDS011;54238;52.278;21.056;2022-12-29T05:37:06;16.70;;;6.80;;
67352;SDS011;54238;52.278;21.056;2022-12-29T05:39:35;13.40;;;6.10;;
67352;SDS011;54238;52.278;21.056;2022-12-29T05:42:09;16.10;;;7.40;;
67352;SDS011;54238;52.278;21.056;2022-12-29T05:44:36;13.50;;;5.40;;
67352;SDS011;54238;52.278;21.056;2022-12-29T05:47:07;13.70;;;5.30;;
67352;SDS011;54238;52.278;21.056;2022-12-29T05:49:36;14.00;;;6.40;;
67352;SDS011;54238;52.278;21.056;2022-12-29T05:52:06;14.00;;;6.50;;
67352;SDS011;54238;52.278;21.056;2022-12-29T05:54:40;14.30;;;6.50;;
67352;SDS011;54238;52.278;21.056;2022-12-29T05:57:10;12.20;;;5.70;;
67352;SDS011;54238;52.278;21.056;2022-12-29T05:59:37;13.00;;;6.00;;
67352;SDS011;54238;52.278;21.056;2022-12-29T06:02:06;14.40;;;6.30;;
67352;SDS011;54238;52.278;21.056;2022-12-29T06:04:33;15.60;;;6.50;;
67352;SDS011;54238;52.278;21.056;2022-12-29T06:07:03;12.20;;;6.70;;
67352;SDS011;54238;52.278;21.056;2022-12-29T06:09:32;13.20;;;6.60;;
67352;SDS011;54238;52.278;21.056;2022-12-29T06:12:06;9.90;;;5.40;;
67352;SDS011;54238;52.278;21.056;2022-12-29T06:14:38;14.80;;;5.80;;
67352;SDS011;54238;52.278;21.056;2022-12-29T06:17:06;14.00;;;7.20;;
67352;SDS011;54238;52.278;21.056;2022-12-29T06:19:35;13.00;;;6.60;;
67352;SDS011;54238;52.278;21.056;2022-12-29T06:22:07;14.30;;;6.00;;
67352;SDS011;54238;52.278;21.056;2022-12-29T06:24:39;12.10;;;6.20;;
67352;SDS011;54238;52.278;21.056;2022-12-29T06:27:09;16.30;;;6.30;;
67352;SDS011;54238;52.278;21.056;2022-12-29T06:29:41;16.10;;;7.10;;
67352;SDS011;54238;52.278;21.056;2022-12-29T06:32:09;21.70;;;7.10;;
67352;SDS011;54238;52.278;21.056;2022-12-29T06:34:39;24.70;;;7.20;;
67352;SDS011;54238;52.278;21.056;2022-12-29T06:37:08;16.90;;;7.30;;
67352;SDS011;54238;52.278;21.056;2022-12-29T06:39:35;18.10;;;7.30;;
67352;SDS011;54238;52.278;21.056;2022-12-29T06:42:06;18.20;;;7.10;;
67352;SDS011;54238;52.278;21.056;2022-12-29T06:44:36;17.00;;;6.80;;
67352;SDS011;54238;52.278;21.056;2022-12-29T06:47:05;16.50;;;7.10;;
67352;SDS011;54238;52.278;21.056;2022-12-29T06:49:32;11.50;;;5.10;;
67352;SDS011;54238;52.278;21.056;2022-12-29T06:52:04;12.90;;;6.40;;
67352;SDS011;54238;52.278;21.056;2022-12-29T06:54:36;17.50;;;6.70;;
67352;SDS011;54238;52.278;21.056;2022-12-29T06:57:08;14.70;;;6.70;;
67352;SDS011;54238;52.278;21.056;2022-12-29T06:59:40;12.70;;;5.80;;
67352;SDS011;54238;52.278;21.056;2022-12-29T07:02:10;17.50;;;6.50;;
67352;SDS011;54238;52.278;21.056;2022-12-29T07:04:51;15.50;;;6.00;;
67352;SDS011;54238;52.278;21.056;2022-12-29T07:07:24;15.20;;;5.30;;
67352;SDS011;54238;52.278;21.056;2022-12-29T07:12:27;14.60;;;6.50;;
67352;SDS011;54238;52.278;21.056;2022-12-29T07:14:54;16.00;;;6.90;;
67352;SDS011;54238;52.278;21.056;2022-12-29T07:17:33;10.50;;;4.60;;
67352;SDS011;54238;52.278;21.056;2022-12-29T07:20:04;13.80;;;5.40;;
67352;SDS011;54238;52.278;21.056;2022-12-29T07:22:36;16.10;;;7.00;;
67352;SDS011;54238;52.278;21.056;2022-12-29T07:25:10;15.80;;;5.70;;
67352;SDS011;54238;52.278;21.056;2022-12-29T07:27:37;12.60;;;5.40;;
67352;SDS011;54238;52.278;21.056;2022-12-29T07:30:08;12.00;;;5.20;;
67352;SDS011;54238;52.278;21.056;2022-12-29T07:32:38;9.00;;;4.50;;
67352;SDS011;54238;52.278;21.056;2022-12-29T07:35:07;14.80;;;6.60;;
67352;SDS011;54238;52.278;21.056;2022-12-29T07:37:35;14.70;;;5.80;;
67352;SDS011;54238;52.278;21.056;2022-12-29T07:40:02;18.90;;;6.20;;
67352;SDS011;54238;52.278;21.056;2022-12-29T07:42:31;12.00;;;5.30;;
67352;SDS011;54238;52.278;21.056;2022-12-29T07:45:01;10.90;;;5.60;;
67352;SDS011;54238;52.278;21.056;2022-12-29T07:47:30;13.30;;;5.90;;
67352;SDS011;54238;52.278;21.056;2022-12-29T07:49:58;6.30;;;3.40;;
67352;SDS011;54238;52.278;21.056;2022-12-29T07:52:27;13.60;;;6.20;;
67352;SDS011;54238;52.278;21.056;2022-12-29T07:54:54;12.30;;;5.40;;
67352;SDS011;54238;52.278;21.056;2022-12-29T07:57:26;11.20;;;5.00;;
67352;SDS011;54238;52.278;21.056;2022-12-29T07:59:56;14.70;;;6.20;;
67352;SDS011;54238;52.278;21.056;2022-12-29T08:02:26;12.50;;;5.50;;
67352;SDS011;54238;52.278;21.056;2022-12-29T08:04:53;10.40;;;4.50;;
67352;SDS011;54238;52.278;21.056;2022-12-29T08:07:20;10.10;;;4.50;;
67352;SDS011;54238;52.278;21.056;2022-12-29T08:09:52;11.20;;;5.70;;
67352;SDS011;54238;52.278;21.056;2022-12-29T08:12:22;10.00;;;5.10;;
67352;SDS011;54238;52.278;21.056;2022-12-29T08:14:50;12.40;;;5.70;;
67352;SDS011;54238;52.278;21.056;2022-12-29T08:17:17;12.70;;;5.60;;
67352;SDS011;54238;52.278;21.056;2022-12-29T08:19:44;14.30;;;6.20;;
67352;SDS011;54238;52.278;21.056;2022-12-29T08:22:13;11.50;;;5.00;;
67352;SDS011;54238;52.278;21.056;2022-12-29T08:24:43;16.90;;;5.30;;
67352;SDS011;54238;52.278;21.056;2022-12-29T08:27:10;12.40;;;5.80;;
67352;SDS011;54238;52.278;21.056;2022-12-29T08:29:37;8.90;;;5.40;;
67352;SDS011;54238;52.278;21.056;2022-12-29T08:32:06;10.60;;;5.30;;
67352;SDS011;54238;52.278;21.056;2022-12-29T08:34:34;17.20;;;6.80;;
67352;SDS011;54238;52.278;21.056;2022-12-29T08:37:04;9.30;;;5.00;;
67352;SDS011;54238;52.278;21.056;2022-12-29T08:39:31;13.00;;;6.00;;
67352;SDS011;54238;52.278;21.056;2022-12-29T08:42:01;10.80;;;5.50;;
67352;SDS011;54238;52.278;21.056;2022-12-29T08:44:30;12.80;;;6.00;;
67352;SDS011;54238;52.278;21.056;2022-12-29T08:46:57;11.80;;;4.90;;
67352;SDS011;54238;52.278;21.056;2022-12-29T08:49:27;9.60;;;5.00;;
67352;SDS011;54238;52.278;21.056;2022-12-29T08:51:56;11.00;;;5.20;;
67352;SDS011;54238;52.278;21.056;2022-12-29T08:54:28;9.20;;;4.20;;
67352;SDS011;54238;52.278;21.056;2022-12-29T08:56:55;8.20;;;5.00;;
67352;SDS011;54238;52.278;21.056;2022-12-29T08:59:22;10.80;;;5.20;;
67352;SDS011;54238;52.278;21.056;2022-12-29T09:01:54;9.20;;;5.30;;
67352;SDS011;54238;52.278;21.056;2022-12-29T09:04:23;8.20;;;3.90;;
67352;SDS011;54238;52.278;21.056;2022-12-29T09:06:56;12.60;;;5.40;;
67352;SDS011;54238;52.278;21.056;2022-12-29T09:09:23;9.10;;;4.80;;
67352;SDS011;54238;52.278;21.056;2022-12-29T09:11:50;9.90;;;5.00;;
67352;SDS011;54238;52.278;21.056;2022-12-29T09:14:17;9.40;;;3.70;;
67352;SDS011;54238;52.278;21.056;2022-12-29T09:16:51;8.10;;;4.70;;
67352;SDS011;54238;52.278;21.056;2022-12-29T09:19:42;8.70;;;4.90;;
67352;SDS011;54238;52.278;21.056;2022-12-29T09:22:14;8.90;;;5.20;;
67352;SDS011;54238;52.278;21.056;2022-12-29T09:24:43;10.20;;;5.40;;
67352;SDS011;54238;52.278;21.056;2022-12-29T09:27:13;8.30;;;4.70;;
67352;SDS011;54238;52.278;21.056;2022-12-29T09:29:40;9.40;;;4.90;;
67352;SDS011;54238;52.278;21.056;2022-12-29T09:32:13;8.10;;;4.90;;
67352;SDS011;54238;52.278;21.056;2022-12-29T09:34:45;8.80;;;4.90;;
67352;SDS011;54238;52.278;21.056;2022-12-29T09:37:15;9.20;;;5.10;;
67352;SDS011;54238;52.278;21.056;2022-12-29T09:39:52;7.90;;;4.50;;
67352;SDS011;54238;52.278;21.056;2022-12-29T09:42:39;10.50;;;4.70;;
67352;SDS011;54238;52.278;21.056;2022-12-29T09:45:20;10.60;;;4.20;;
67352;SDS011;54238;52.278;21.056;2022-12-29T09:48:21;8.70;;;4.20;;
67352;SDS011;54238;52.278;21.056;2022-12-29T09:51:02;9.10;;;4.50;;
67352;SDS011;54238;52.278;21.056;2022-12-29T09:53:43;10.20;;;4.70;;
67352;SDS011;54238;52.278;21.056;2022-12-29T09:56:19;12.30;;;5.00;;
67352;SDS011;54238;52.278;21.056;2022-12-29T10:01:41;10.20;;;5.00;;
67352;SDS011;54238;52.278;21.056;2022-12-29T10:04:23;7.00;;;3.60;;
67352;SDS011;54238;52.278;21.056;2022-12-29T10:07:00;8.50;;;4.60;;
67352;SDS011;54238;52.278;21.056;2022-12-29T10:24:23;7.10;;;4.50;;
67352;SDS011;54238;52.278;21.056;2022-12-29T10:26:58;9.30;;;5.20;;
67352;SDS011;54238;52.278;21.056;2022-12-29T10:29:33;10.30;;;5.60;;
67352;SDS011;54238;52.278;21.056;2022-12-29T10:34:56;9.00;;;4.70;;
67352;SDS011;54238;52.278;21.056;2022-12-29T10:38:20;9.90;;;4.80;;
67352;SDS011;54238;52.278;21.056;2022-12-29T10:43:47;10.70;;;5.00;;
67352;SDS011;54238;52.278;21.056;2022-12-29T10:46:23;9.90;;;4.90;;
67352;SDS011;54238;52.278;21.056;2022-12-29T10:49:03;11.30;;;4.50;;
67352;SDS011;54238;52.278;21.056;2022-12-29T10:51:36;10.50;;;4.70;;
67352;SDS011;54238;52.278;21.056;2022-12-29T10:54:19;10.40;;;5.30;;
67352;SDS011;54238;52.278;21.056;2022-12-29T10:57:09;8.20;;;4.60;;
67352;SDS011;54238;52.278;21.056;2022-12-29T10:59:53;11.30;;;4.80;;
67352;SDS011;54238;52.278;21.056;2022-12-29T11:05:23;11.80;;;5.60;;
67352;SDS011;54238;52.278;21.056;2022-12-29T11:08:04;10.40;;;5.60;;
67352;SDS011;54238;52.278;21.056;2022-12-29T11:10:41;10.30;;;5.70;;
67352;SDS011;54238;52.278;21.056;2022-12-29T11:13:18;14.70;;;5.20;;
67352;SDS011;54238;52.278;21.056;2022-12-29T11:15:54;6.90;;;4.30;;
67352;SDS011;54238;52.278;21.056;2022-12-29T11:18:27;16.40;;;5.20;;
67352;SDS011;54238;52.278;21.056;2022-12-29T11:20:57;11.40;;;5.80;;
67352;SDS011;54238;52.278;21.056;2022-12-29T11:23:40;10.80;;;4.40;;
67352;SDS011;54238;52.278;21.056;2022-12-29T11:26:25;8.60;;;4.30;;
67352;SDS011;54238;52.278;21.056;2022-12-29T11:31:54;8.90;;;4.70;;
67352;SDS011;54238;52.278;21.056;2022-12-29T11:34:33;10.00;;;4.50;;
67352;SDS011;54238;52.278;21.056;2022-12-29T11:37:06;11.70;;;5.00;;
67352;SDS011;54238;52.278;21.056;2022-12-29T11:45:06;11.90;;;4.70;;
67352;SDS011;54238;52.278;21.056;2022-12-29T11:47:48;13.90;;;6.50;;
67352;SDS011;54238;52.278;21.056;2022-12-29T11:50:28;11.80;;;5.20;;
67352;SDS011;54238;52.278;21.056;2022-12-29T11:53:20;14.80;;;6.10;;
67352;SDS011;54238;52.278;21.056;2022-12-29T11:55:56;17.30;;;5.70;;
67352;SDS011;54238;52.278;21.056;2022-12-29T11:58:35;12.90;;;5.60;;
67352;SDS011;54238;52.278;21.056;2022-12-29T12:04:19;8.00;;;4.70;;
67352;SDS011;54238;52.278;21.056;2022-12-29T12:09:47;12.90;;;6.00;;
67352;SDS011;54238;52.278;21.056;2022-12-29T12:12:32;14.30;;;5.80;;
67352;SDS011;54238;52.278;21.056;2022-12-29T12:15:38;12.70;;;5.70;;
67352;SDS011;54238;52.278;21.056;2022-12-29T12:21:15;11.10;;;5.50;;
67352;SDS011;54238;52.278;21.056;2022-12-29T12:29:38;12.40;;;5.80;;
67352;SDS011;54238;52.278;21.056;2022-12-29T12:32:49;14.60;;;5.80;;
67352;SDS011;54238;52.278;21.056;2022-12-29T12:38:34;9.60;;;5.30;;
67352;SDS011;54238;52.278;21.056;2022-12-29T12:44:32;7.60;;;4.30;;
67352;SDS011;54238;52.278;21.056;2022-12-29T12:47:17;13.80;;;6.00;;
67352;SDS011;54238;52.278;21.056;2022-12-29T12:53:26;14.30;;;5.30;;
67352;SDS011;54238;52.278;21.056;2022-12-29T12:59:06;9.60;;;5.30;;
67352;SDS011;54238;52.278;21.056;2022-12-29T13:05:02;13.80;;;5.30;;
67352;SDS011;54238;52.278;21.056;2022-12-29T13:11:28;8.00;;;4.60;;
67352;SDS011;54238;52.278;21.056;2022-12-29T13:23:03;8.10;;;4.50;;
67352;SDS011;54238;52.278;21.056;2022-12-29T13:37:31;13.70;;;6.10;;
67352;SDS011;54238;52.278;21.056;2022-12-29T13:40:13;9.40;;;4.60;;
67352;SDS011;54238;52.278;21.056;2022-12-29T13:42:45;12.10;;;6.10;;
67352;SDS011;54238;52.278;21.056;2022-12-29T13:45:21;11.90;;;6.20;;
67352;SDS011;54238;52.278;21.056;2022-12-29T13:50:26;14.20;;;5.80;;
67352;SDS011;54238;52.278;21.056;2022-12-29T13:53:17;10.40;;;5.50;;
67352;SDS011;54238;52.278;21.056;2022-12-29T13:56:07;12.90;;;5.10;;
67352;SDS011;54238;52.278;21.056;2022-12-29T13:58:54;9.60;;;5.50;;
67352;SDS011;54238;52.278;21.056;2022-12-29T14:04:13;13.40;;;6.10;;
67352;SDS011;54238;52.278;21.056;2022-12-29T14:06:46;13.10;;;5.00;;
67352;SDS011;54238;52.278;21.056;2022-12-29T14:09:44;13.50;;;5.00;;
67352;SDS011;54238;52.278;21.056;2022-12-29T14:17:42;8.40;;;5.10;;
67352;SDS011;54238;52.278;21.056;2022-12-29T14:20:21;14.40;;;5.10;;
67352;SDS011;54238;52.278;21.056;2022-12-29T14:28:39;9.20;;;5.70;;
67352;SDS011;54238;52.278;21.056;2022-12-29T14:47:32;9.40;;;4.40;;
67352;SDS011;54238;52.278;21.056;2022-12-29T14:50:11;7.50;;;4.60;;
67352;SDS011;54238;52.278;21.056;2022-12-29T14:52:49;9.80;;;5.80;;
67352;SDS011;54238;52.278;21.056;2022-12-29T14:57:48;12.60;;;5.60;;
67352;SDS011;54238;52.278;21.056;2022-12-29T15:00:27;11.10;;;5.30;;
67352;SDS011;54238;52.278;21.056;2022-12-29T15:08:25;14.00;;;5.70;;
67352;SDS011;54238;52.278;21.056;2022-12-29T15:11:13;11.90;;;4.90;;
67352;SDS011;54238;52.278;21.056;2022-12-29T15:13:49;12.60;;;5.80;;
67352;SDS011;54238;52.278;21.056;2022-12-29T15:16:30;9.50;;;5.00;;
67352;SDS011;54238;52.278;21.056;2022-12-29T15:19:03;11.80;;;5.90;;
67352;SDS011;54238;52.278;21.056;2022-12-29T15:21:47;16.70;;;6.50;;
67352;SDS011;54238;52.278;21.056;2022-12-29T15:24:15;19.70;;;6.80;;
67352;SDS011;54238;52.278;21.056;2022-12-29T15:26:49;11.00;;;6.10;;
67352;SDS011;54238;52.278;21.056;2022-12-29T15:34:48;11.80;;;6.40;;
67352;SDS011;54238;52.278;21.056;2022-12-29T15:37:27;14.90;;;7.10;;
67352;SDS011;54238;52.278;21.056;2022-12-29T15:39:59;15.70;;;6.70;;
67352;SDS011;54238;52.278;21.056;2022-12-29T15:45:07;16.70;;;6.90;;
67352;SDS011;54238;52.278;21.056;2022-12-29T15:47:41;13.20;;;6.60;;
67352;SDS011;54238;52.278;21.056;2022-12-29T15:50:31;12.80;;;6.20;;
67352;SDS011;54238;52.278;21.056;2022-12-29T15:53:10;18.50;;;6.80;;
67352;SDS011;54238;52.278;21.056;2022-12-29T15:55:55;12.00;;;5.60;;
67352;SDS011;54238;52.278;21.056;2022-12-29T15:58:39;15.60;;;6.70;;
67352;SDS011;54238;52.278;21.056;2022-12-29T16:03:58;16.40;;;6.90;;
67352;SDS011;54238;52.278;21.056;2022-12-29T16:06:39;16.80;;;6.50;;
67352;SDS011;54238;52.278;21.056;2022-12-29T16:09:18;12.50;;;6.10;;
67352;SDS011;54238;52.278;21.056;2022-12-29T16:12:16;11.80;;;6.60;;
67352;SDS011;54238;52.278;21.056;2022-12-29T16:17:44;15.50;;;7.10;;
67352;SDS011;54238;52.278;21.056;2022-12-29T16:20:43;13.50;;;6.80;;
67352;SDS011;54238;52.278;21.056;2022-12-29T16:23:25;14.40;;;5.90;;
67352;SDS011;54238;52.278;21.056;2022-12-29T16:25:55;20.70;;;6.90;;
67352;SDS011;54238;52.278;21.056;2022-12-29T16:28:30;9.90;;;5.20;;
67352;SDS011;54238;52.278;21.056;2022-12-29T16:31:35;13.00;;;6.10;;
67352;SDS011;54238;52.278;21.056;2022-12-29T16:36:53;10.80;;;6.40;;
67352;SDS011;54238;52.278;21.056;2022-12-29T16:39:34;15.80;;;7.20;;
67352;SDS011;54238;52.278;21.056;2022-12-29T16:47:49;14.90;;;6.80;;
67352;SDS011;54238;52.278;21.056;2022-12-29T16:50:46;13.90;;;7.10;;
67352;SDS011;54238;52.278;21.056;2022-12-29T16:55:57;16.10;;;5.60;;
67352;SDS011;54238;52.278;21.056;2022-12-29T16:58:35;10.70;;;5.90;;
67352;SDS011;54238;52.278;21.056;2022-12-29T17:01:04;13.20;;;6.90;;
67352;SDS011;54238;52.278;21.056;2022-12-29T17:03:54;9.50;;;6.10;;
67352;SDS011;54238;52.278;21.056;2022-12-29T17:06:27;14.50;;;6.90;;
67352;SDS011;54238;52.278;21.056;2022-12-29T17:08:54;11.70;;;6.30;;
67352;SDS011;54238;52.278;21.056;2022-12-29T17:11:33;12.40;;;6.80;;
67352;SDS011;54238;52.278;21.056;2022-12-29T17:19:54;15.30;;;6.80;;
67352;SDS011;54238;52.278;21.056;2022-12-29T17:22:28;15.10;;;7.30;;
67352;SDS011;54238;52.278;21.056;2022-12-29T17:25:00;14.60;;;7.50;;
67352;SDS011;54238;52.278;21.056;2022-12-29T17:27:36;14.90;;;6.90;;
67352;SDS011;54238;52.278;21.056;2022-12-29T17:32:52;11.80;;;6.30;;
67352;SDS011;54238;52.278;21.056;2022-12-29T17:35:30;19.30;;;6.60;;
67352;SDS011;54238;52.278;21.056;2022-12-29T17:38:00;16.00;;;8.00;;
67352;SDS011;54238;52.278;21.056;2022-12-29T17:40:31;15.60;;;6.20;;
67352;SDS011;54238;52.278;21.056;2022-12-29T17:42:59;17.80;;;7.50;;
67352;SDS011;54238;52.278;21.056;2022-12-29T17:45:29;15.20;;;7.10;;
67352;SDS011;54238;52.278;21.056;2022-12-29T17:47:58;10.70;;;5.70;;
67352;SDS011;54238;52.278;21.056;2022-12-29T17:50:33;15.90;;;7.90;;
67352;SDS011;54238;52.278;21.056;2022-12-29T17:53:11;11.00;;;7.10;;
67352;SDS011;54238;52.278;21.056;2022-12-29T17:55:43;10.00;;;5.40;;
67352;SDS011;54238;52.278;21.056;2022-12-29T17:58:21;12.00;;;6.20;;
67352;SDS011;54238;52.278;21.056;2022-12-29T18:00:57;17.00;;;6.10;;
67352;SDS011;54238;52.278;21.056;2022-12-29T18:03:34;18.80;;;7.70;;
67352;SDS011;54238;52.278;21.056;2022-12-29T18:06:10;11.70;;;6.50;;
67352;SDS011;54238;52.278;21.056;2022-12-29T18:08:41;17.70;;;6.50;;
67352;SDS011;54238;52.278;21.056;2022-12-29T18:11:24;13.10;;;7.00;;
67352;SDS011;54238;52.278;21.056;2022-12-29T18:13:54;14.00;;;6.80;;
67352;SDS011;54238;52.278;21.056;2022-12-29T18:16:22;12.20;;;7.20;;
67352;SDS011;54238;52.278;21.056;2022-12-29T18:18:52;14.40;;;7.80;;
67352;SDS011;54238;52.278;21.056;2022-12-29T18:21:23;21.30;;;7.60;;
67352;SDS011;54238;52.278;21.056;2022-12-29T18:23:55;17.30;;;7.90;;
67352;SDS011;54238;52.278;21.056;2022-12-29T18:26:24;19.10;;;7.80;;
67352;SDS011;54238;52.278;21.056;2022-12-29T18:29:01;15.50;;;7.40;;
67352;SDS011;54238;52.278;21.056;2022-12-29T18:31:31;14.00;;;7.60;;
67352;SDS011;54238;52.278;21.056;2022-12-29T18:34:05;13.20;;;7.10;;
67352;SDS011;54238;52.278;21.056;2022-12-29T18:36:38;16.00;;;7.10;;
67352;SDS011;54238;52.278;21.056;2022-12-29T18:39:10;11.20;;;6.40;;
67352;SDS011;54238;52.278;21.056;2022-12-29T18:41:37;14.50;;;8.10;;
67352;SDS011;54238;52.278;21.056;2022-12-29T18:44:11;14.50;;;7.80;;
67352;SDS011;54238;52.278;21.056;2022-12-29T18:46:46;16.20;;;8.50;;